createdAt,value
2023-02-21T00:02:00.304Z,21.85
2023-02-21T00:04:45.733Z,13.02
2023-02-21T00:07:31.117Z,19.30
2023-02-21T00:10:16.612Z,10.77
2023-02-21T00:13:02.214Z,17.85
2023-02-21T00:15:47.690Z,11.43
2023-02-21T00:18:33.042Z,18.67
2023-02-21T00:21:18.449Z,16.80
2023-02-21T00:24:04.446Z,17.92
2023-02-21T00:26:49.900Z,9.60
2023-02-21T00:29:35.843Z,15.75
2023-02-21T00:32:21.729Z,11.77
2023-02-21T00:35:07.185Z,17.95
2023-02-21T00:37:52.627Z,13.20
2023-02-21T00:40:38.178Z,23.88
2023-02-21T00:43:23.478Z,12.43
2023-02-21T00:46:09.333Z,22.08
2023-02-21T00:48:54.600Z,13.45
2023-02-21T00:51:40.060Z,10.25
2023-02-21T00:54:25.480Z,14.50
2023-02-21T00:57:10.960Z,16.02
2023-02-21T00:59:56.499Z,12.98
2023-02-21T01:02:43.117Z,12.65
2023-02-21T01:05:28.487Z,20.65
2023-02-21T01:08:15.176Z,19.70
2023-02-21T01:11:00.681Z,14.82
2023-02-21T01:13:46.579Z,15.82
2023-02-21T01:16:32.212Z,13.93
2023-02-21T01:19:17.958Z,11.60
2023-02-21T01:22:03.442Z,13.43
2023-02-21T01:24:48.856Z,22.08
2023-02-21T01:27:34.237Z,15.50
2023-02-21T01:30:19.643Z,21.05
2023-02-21T01:33:05.215Z,13.63
2023-02-21T01:35:50.678Z,11.82
2023-02-21T01:38:36.126Z,23.27
2023-02-21T01:41:21.534Z,16.67
2023-02-21T01:44:22.960Z,17.85
2023-02-21T01:47:08.375Z,16.08
2023-02-21T01:49:56.936Z,16.58
2023-02-21T01:52:43.616Z,17.67
2023-02-21T01:55:30.438Z,22.42
2023-02-21T01:58:16.509Z,26.10
2023-02-21T02:01:03.527Z,20.88
2023-02-21T02:03:50.152Z,12.65
2023-02-21T02:06:36.444Z,10.45
2023-02-21T02:09:39.182Z,10.30
2023-02-21T02:12:56.433Z,16.73
2023-02-21T02:15:34.984Z,20.30
2023-02-21T02:18:18.410Z,20.15
2023-02-21T02:21:23.143Z,17.20
2023-02-21T02:24:17.312Z,14.30
2023-02-21T02:27:11.771Z,17.63
2023-02-21T02:29:59.991Z,16.98
2023-02-21T02:32:50.524Z,10.15
2023-02-21T02:35:24.706Z,9.73
2023-02-21T02:38:06.556Z,14.15
2023-02-21T02:40:52.116Z,20.83
2023-02-21T02:43:52.618Z,13.48
2023-02-21T02:46:25.967Z,15.75
2023-02-21T02:48:59.999Z,17.10
2023-02-21T02:51:27.929Z,9.88
2023-02-21T02:53:58.510Z,20.48
2023-02-21T02:56:28.794Z,17.95
2023-02-21T02:59:06.350Z,14.90
2023-02-21T03:01:48.685Z,14.65
2023-02-21T03:05:07.087Z,11.18
2023-02-21T03:07:43.311Z,17.38
2023-02-21T03:10:23.331Z,18.65
2023-02-21T03:13:06.606Z,16.58
2023-02-21T03:15:44.503Z,18.23
2023-02-21T03:18:30.610Z,9.48
2023-02-21T03:21:00.057Z,19.58
2023-02-21T03:23:30.132Z,12.25
2023-02-21T03:26:03.677Z,14.45
2023-02-21T03:28:33.582Z,19.65
2023-02-21T03:31:02.152Z,5.88
2023-02-21T03:33:31.316Z,12.23
2023-02-21T03:36:00.594Z,9.32
2023-02-21T03:38:29.503Z,13.43
2023-02-21T03:40:56.701Z,8.57
2023-02-21T03:43:23.861Z,10.93
2023-02-21T03:45:57.098Z,6.07
2023-02-21T03:48:31.958Z,6.03
2023-02-21T03:51:07.617Z,5.75
2023-02-21T03:53:36.855Z,3.17
2023-02-21T03:56:05.216Z,7.68
2023-02-21T03:58:47.474Z,4.45
2023-02-21T04:01:15.884Z,4.03
2023-02-21T04:03:43.239Z,4.63
2023-02-21T04:06:10.386Z,2.53
2023-02-21T04:08:37.813Z,4.20
2023-02-21T04:11:04.896Z,3.65
2023-02-21T04:13:34.543Z,1.70
2023-02-21T04:16:02.768Z,4.30
2023-02-21T04:18:56.497Z,1.05
2023-02-21T04:21:25.673Z,1.48
2023-02-21T04:23:55.230Z,0.82
2023-02-21T04:26:25.267Z,4.50
2023-02-21T04:28:53.533Z,2.58
2023-02-21T04:31:20.613Z,1.55
2023-02-21T04:33:49.421Z,2.17
2023-02-21T04:36:23.142Z,1.90
2023-02-21T04:39:16.158Z,0.88
2023-02-21T04:41:43.441Z,1.70
2023-02-21T04:44:10.425Z,1.85
2023-02-21T04:46:38.074Z,3.60
2023-02-21T04:49:05.506Z,1.88
2023-02-21T04:51:32.496Z,2.78
2023-02-21T04:53:59.992Z,8.20
2023-02-21T04:56:28.116Z,2.47
2023-02-21T04:58:56.050Z,1.77
2023-02-21T05:01:27.117Z,3.22
2023-02-21T05:03:54.188Z,5.10
2023-02-21T05:06:23.135Z,1.75
2023-02-21T05:08:51.185Z,4.63
2023-02-21T05:11:19.535Z,1.95
2023-02-21T05:13:48.083Z,0.55
2023-02-21T05:16:17.526Z,1.55
2023-02-21T05:18:47.565Z,1.33
2023-02-21T06:45:36.313Z,6.93
2023-02-21T06:48:03.841Z,1.85
2023-02-21T06:50:30.647Z,1.13
2023-02-21T06:52:57.489Z,2.03
2023-02-21T06:55:25.782Z,1.25
2023-02-21T06:57:52.936Z,1.95
2023-02-21T07:00:19.916Z,1.80
2023-02-21T07:02:46.773Z,3.95
2023-02-21T07:05:13.612Z,1.30
2023-02-21T07:07:40.469Z,4.45
2023-02-21T07:10:07.558Z,7.35
2023-02-21T07:12:34.469Z,3.15
2023-02-21T07:15:01.685Z,2.17
2023-02-21T07:17:28.496Z,1.83
2023-02-21T07:19:55.344Z,1.80
2023-02-21T07:22:26.202Z,4.32
2023-02-21T07:24:54.075Z,2.90
2023-02-21T07:27:21.280Z,3.80
2023-02-21T07:29:49.107Z,2.45
2023-02-21T07:32:17.141Z,5.93
2023-02-21T07:34:44.373Z,3.20
2023-02-21T07:37:11.908Z,5.30
2023-02-21T07:39:38.744Z,2.08
2023-02-21T07:42:05.670Z,5.03
2023-02-21T07:44:32.620Z,6.22
2023-02-21T07:46:59.591Z,5.35
2023-02-21T07:49:26.457Z,8.73
2023-02-21T07:51:53.382Z,3.10
2023-02-21T07:54:20.242Z,10.80
2023-02-21T07:56:49.254Z,8.50
2023-02-21T07:59:16.582Z,5.43
2023-02-21T08:01:43.495Z,14.02
2023-02-21T08:04:10.389Z,8.63
2023-02-21T08:06:37.269Z,1.98
2023-02-21T08:09:05.352Z,6.97
2023-02-21T08:11:34.101Z,8.93
2023-02-21T08:14:00.938Z,4.88
2023-02-21T08:16:28.524Z,10.57
2023-02-21T08:18:55.410Z,1.83
2023-02-21T08:21:22.180Z,7.50
2023-02-21T08:23:48.976Z,4.63
2023-02-21T08:26:16.271Z,0.82
2023-02-21T08:28:43.057Z,3.97
2023-02-21T08:31:09.857Z,6.90
2023-02-21T08:33:36.785Z,3.90
2023-02-21T08:36:04.001Z,4.03
2023-02-21T08:38:30.967Z,2.17
2023-02-21T08:40:57.847Z,6.13
2023-02-21T08:43:25.346Z,10.75
2023-02-21T08:45:52.129Z,3.00
2023-02-21T08:48:18.932Z,2.00
2023-02-21T08:50:45.994Z,6.35
2023-02-21T08:53:15.470Z,5.72
2023-02-21T08:55:43.118Z,8.00
2023-02-21T08:58:11.903Z,8.48
2023-02-21T09:00:39.331Z,4.53
2023-02-21T09:03:06.256Z,6.10
2023-02-21T09:05:33.126Z,4.30
2023-02-21T09:08:01.629Z,6.25
2023-02-21T09:10:30.608Z,13.63
2023-02-21T09:12:57.630Z,10.05
2023-02-21T09:15:24.486Z,27.58
2023-02-21T09:17:52.376Z,16.05
2023-02-21T09:20:23.566Z,6.25
2023-02-21T09:22:51.110Z,5.25
2023-02-21T09:25:23.011Z,3.17
2023-02-21T09:27:51.534Z,4.65
2023-02-21T09:30:23.848Z,5.53
2023-02-21T09:32:51.169Z,4.47
2023-02-21T09:35:18.396Z,2.92
2023-02-21T09:37:46.491Z,4.72
2023-02-21T09:40:25.446Z,5.13
2023-02-21T09:42:55.162Z,5.47
2023-02-21T09:45:22.691Z,3.40
2023-02-21T09:47:55.830Z,5.55
2023-02-21T09:50:31.002Z,9.15
2023-02-21T09:52:58.999Z,14.88
2023-02-21T09:55:33.686Z,6.22
2023-02-21T09:58:00.957Z,7.43
2023-02-21T10:00:37.276Z,3.22
2023-02-21T10:03:43.790Z,6.90
2023-02-21T10:06:43.011Z,4.72
2023-02-21T10:09:28.404Z,7.68
2023-02-21T10:12:26.960Z,1.10
2023-02-21T10:14:59.386Z,2.97
2023-02-21T10:17:49.216Z,2.78
2023-02-21T10:20:32.132Z,2.25
2023-02-21T10:23:01.035Z,4.13
2023-02-21T10:25:33.864Z,2.28
2023-02-21T10:28:00.881Z,3.63
2023-02-21T10:30:35.289Z,3.58
2023-02-21T10:33:06.724Z,2.92
2023-02-21T10:35:34.960Z,2.47
2023-02-21T10:38:04.299Z,2.50
2023-02-21T10:40:45.803Z,3.25
2023-02-21T10:43:23.419Z,3.67
2023-02-21T10:46:01.768Z,3.50
2023-02-21T10:48:35.192Z,2.25
2023-02-21T10:51:08.821Z,3.00
2023-02-21T10:53:38.827Z,2.83
2023-02-21T10:56:20.502Z,4.00
2023-02-21T10:58:49.373Z,2.55
2023-02-21T11:01:26.810Z,3.17
2023-02-21T11:04:04.581Z,2.50
2023-02-21T11:06:31.361Z,5.35
2023-02-21T11:08:59.397Z,2.97
2023-02-21T11:11:36.093Z,4.53
2023-02-21T11:14:24.597Z,4.57
2023-02-21T11:17:06.509Z,3.75
2023-02-21T11:19:57.721Z,5.68
2023-02-21T11:22:35.445Z,4.45
2023-02-21T11:25:19.594Z,5.70
2023-02-21T11:28:04.493Z,4.57
2023-02-21T11:30:37.449Z,7.00
2023-02-21T11:33:06.132Z,6.25
2023-02-21T11:35:36.354Z,5.30
2023-02-21T11:38:09.987Z,5.28
2023-02-21T11:40:49.392Z,4.20
2023-02-21T11:43:28.964Z,4.88
2023-02-21T11:46:16.306Z,4.63
2023-02-21T11:49:00.054Z,4.25
2023-02-21T11:51:32.310Z,6.47
2023-02-21T11:53:59.621Z,5.28
2023-02-21T11:56:38.653Z,7.13
2023-02-21T11:59:47.552Z,5.30
2023-02-21T12:02:30.207Z,5.38
2023-02-21T12:05:24.969Z,7.25
2023-02-21T12:08:12.919Z,6.45
2023-02-21T12:10:58.298Z,3.97
2023-02-21T12:13:44.651Z,4.22
2023-02-21T12:16:30.208Z,4.13
2023-02-21T12:19:11.961Z,5.28
2023-02-21T12:22:06.598Z,4.97
2023-02-21T12:25:11.449Z,2.80
2023-02-21T12:27:43.733Z,4.53
2023-02-21T12:30:49.818Z,3.55
2023-02-21T12:33:16.664Z,5.22
2023-02-21T12:36:12.661Z,3.00
2023-02-21T12:39:14.675Z,5.28
2023-02-21T12:41:48.676Z,6.38
2023-02-21T12:44:38.239Z,4.93
2023-02-21T12:47:15.950Z,5.28
2023-02-21T12:50:13.170Z,3.63
2023-02-21T12:53:26.386Z,4.10
2023-02-21T12:56:02.919Z,5.47
2023-02-21T12:58:40.879Z,3.47
2023-02-21T13:01:21.037Z,5.75
2023-02-21T13:04:21.918Z,5.68
2023-02-21T13:07:01.200Z,5.88
2023-02-21T13:09:36.589Z,4.97
2023-02-21T13:12:10.167Z,8.90
2023-02-21T13:14:50.769Z,4.15
2023-02-21T13:17:19.529Z,5.50
2023-02-21T13:20:08.742Z,6.13
2023-02-21T13:23:03.981Z,4.72
2023-02-21T13:26:12.704Z,4.78
2023-02-21T13:28:41.537Z,5.00
2023-02-21T13:31:19.547Z,6.05
2023-02-21T13:34:01.692Z,3.88
2023-02-21T13:36:32.906Z,4.18
2023-02-21T13:39:14.333Z,5.25
2023-02-21T13:41:57.677Z,12.13
2023-02-21T13:44:29.922Z,3.33
2023-02-21T13:47:00.789Z,5.18
2023-02-21T13:49:48.478Z,5.47
2023-02-21T13:52:24.483Z,4.15
2023-02-21T13:55:16.726Z,6.15
2023-02-21T13:58:05.266Z,5.07
2023-02-21T14:00:32.143Z,6.70
2023-02-21T14:03:05.712Z,6.90
2023-02-21T14:05:44.920Z,3.92
2023-02-21T14:08:30.286Z,4.57
2023-02-21T14:11:15.484Z,6.10
2023-02-21T14:13:54.738Z,3.88
2023-02-21T14:16:47.237Z,4.45
2023-02-21T14:19:41.257Z,4.00
2023-02-21T14:22:13.665Z,3.95
2023-02-21T14:24:45.252Z,4.70
2023-02-21T14:27:12.563Z,6.18
2023-02-21T14:30:06.338Z,5.28
2023-02-21T14:32:46.503Z,4.22
2023-02-21T14:35:16.351Z,4.82
2023-02-21T14:37:53.115Z,8.63
2023-02-21T14:40:31.655Z,4.90
2023-02-21T14:43:16.939Z,5.00
2023-02-21T14:45:56.024Z,5.47
2023-02-21T14:48:40.899Z,5.35
2023-02-21T14:51:47.308Z,5.55
2023-02-21T14:54:38.538Z,6.18
2023-02-21T14:57:24.214Z,5.72
2023-02-21T15:00:15.423Z,7.53
2023-02-21T15:02:56.946Z,4.47
2023-02-21T15:05:27.913Z,5.50
2023-02-21T15:08:21.630Z,6.40
2023-02-21T15:10:50.673Z,4.13
2023-02-21T15:13:32.055Z,6.80
2023-02-21T15:16:11.973Z,7.25
2023-02-21T15:18:40.835Z,7.70
2023-02-21T15:21:20.453Z,5.80
2023-02-21T15:23:59.372Z,6.60
2023-02-21T15:26:30.137Z,6.03
2023-02-21T15:29:14.474Z,9.88
2023-02-21T15:31:49.759Z,8.18
2023-02-21T15:34:21.415Z,4.65
2023-02-21T15:36:58.182Z,5.50
2023-02-21T15:39:32.503Z,5.75
2023-02-21T15:42:01.714Z,4.80
2023-02-21T15:44:45.780Z,4.70
2023-02-21T15:47:19.751Z,4.35
2023-02-21T15:50:34.731Z,6.22
2023-02-21T15:53:30.752Z,3.40
2023-02-21T15:56:17.779Z,5.45
2023-02-21T15:59:08.791Z,5.15
2023-02-21T16:01:35.813Z,5.78
2023-02-21T16:04:36.739Z,4.95
2023-02-21T16:07:07.287Z,6.22
2023-02-21T16:09:36.068Z,5.00
2023-02-21T16:12:11.892Z,5.72
2023-02-21T16:14:55.216Z,5.07
2023-02-21T16:17:37.872Z,7.28
2023-02-21T16:20:19.399Z,6.80
2023-02-21T16:23:07.152Z,4.30
2023-02-21T16:25:34.983Z,3.90
2023-02-21T16:28:02.710Z,5.05
2023-02-21T16:30:31.722Z,5.28
2023-02-21T16:33:04.049Z,6.30
2023-02-21T16:35:32.074Z,7.63
2023-02-21T16:38:00.960Z,7.43
2023-02-21T16:40:30.684Z,7.05
2023-02-21T16:42:58.852Z,9.77
2023-02-21T16:45:25.866Z,4.45
2023-02-21T16:47:59.066Z,8.63
2023-02-21T16:50:35.282Z,6.68
2023-02-21T16:53:03.103Z,6.82
2023-02-21T16:55:30.595Z,5.47
2023-02-21T16:58:02.383Z,4.75
2023-02-21T17:00:32.019Z,6.57
2023-02-21T17:02:59.217Z,5.55
2023-02-21T17:05:26.580Z,6.95
2023-02-21T17:07:55.177Z,4.38
2023-02-21T17:10:22.339Z,4.95
2023-02-21T17:12:49.281Z,3.45
2023-02-21T17:15:16.299Z,3.53
2023-02-21T17:17:48.475Z,4.85
2023-02-21T17:20:19.669Z,6.70
2023-02-21T17:22:46.925Z,3.10
2023-02-21T17:25:14.056Z,5.40
2023-02-21T17:27:41.682Z,5.57
2023-02-21T17:30:10.048Z,5.22
2023-02-21T17:32:37.020Z,5.47
2023-02-21T17:35:04.640Z,6.35
2023-02-21T17:37:31.524Z,3.67
2023-02-21T17:39:58.374Z,3.67
2023-02-21T17:42:25.812Z,4.32
2023-02-21T17:44:53.350Z,6.57
2023-02-21T17:47:21.881Z,5.30
2023-02-21T17:49:49.596Z,7.15
2023-02-21T17:52:17.765Z,5.43
2023-02-21T17:54:44.761Z,5.10
2023-02-21T17:57:11.935Z,3.55
2023-02-21T17:59:39.261Z,4.82
2023-02-21T18:02:08.196Z,3.67
2023-02-21T18:04:35.447Z,3.47
2023-02-21T18:07:02.470Z,3.65
2023-02-21T18:09:30.453Z,7.13
2023-02-21T18:11:59.524Z,3.97
2023-02-21T18:14:30.140Z,4.53
2023-02-21T18:16:58.197Z,4.28
2023-02-21T18:19:25.628Z,5.13
2023-02-21T18:21:52.654Z,3.22
2023-02-21T18:24:21.508Z,4.18
2023-02-21T18:26:48.479Z,5.45
2023-02-21T18:29:16.347Z,2.92
2023-02-21T18:31:43.226Z,5.63
2023-02-21T18:34:10.137Z,4.63
2023-02-21T18:36:40.831Z,2.30
2023-02-21T18:39:07.792Z,3.78
2023-02-21T18:41:35.313Z,4.05
2023-02-21T18:44:02.191Z,5.55
2023-02-21T18:46:29.002Z,4.00
2023-02-21T18:48:56.084Z,2.90
2023-02-21T18:51:22.982Z,4.85
2023-02-21T18:53:50.548Z,3.10
2023-02-21T18:56:19.479Z,3.95
2023-02-21T18:58:49.319Z,4.65
2023-02-21T19:01:18.665Z,3.85
2023-02-21T19:03:46.911Z,3.92
2023-02-21T19:06:17.181Z,3.47
2023-02-21T19:08:46.827Z,2.97
2023-02-21T19:11:15.315Z,6.07
2023-02-21T19:13:47.313Z,6.50
2023-02-21T19:16:14.650Z,3.63
2023-02-21T19:18:41.566Z,2.70
2023-02-21T19:21:12.559Z,4.18
2023-02-21T19:23:40.876Z,2.70
2023-02-21T19:26:09.594Z,4.18
2023-02-21T19:28:38.585Z,3.30
2023-02-21T19:31:05.676Z,2.05
2023-02-21T19:33:32.643Z,3.63
2023-02-21T19:36:02.258Z,7.95
2023-02-21T19:38:29.304Z,3.60
2023-02-21T19:40:56.089Z,6.20
2023-02-21T19:43:24.059Z,3.83
2023-02-21T19:45:52.692Z,3.33
2023-02-21T19:48:22.922Z,2.70
2023-02-21T19:50:50.097Z,3.20
2023-02-21T19:53:17.152Z,3.53
2023-02-21T19:55:44.374Z,5.57
2023-02-21T19:58:11.358Z,3.30
2023-02-21T20:00:42.677Z,4.55
2023-02-21T20:03:10.398Z,3.60
2023-02-21T20:05:37.341Z,3.05
2023-02-21T20:08:04.393Z,2.80
2023-02-21T20:10:31.281Z,3.47
2023-02-21T20:12:58.809Z,3.85
2023-02-21T20:15:25.636Z,5.47
2023-02-21T20:17:54.190Z,3.42
2023-02-21T20:20:21.071Z,2.05
2023-02-21T20:22:47.932Z,3.97
2023-02-21T20:25:14.784Z,6.82
2023-02-21T20:27:41.919Z,5.30
2023-02-21T20:30:09.864Z,4.15
2023-02-21T20:32:36.950Z,3.67
2023-02-21T20:35:04.312Z,3.80
2023-02-21T20:37:31.455Z,3.53
2023-02-21T20:40:00.423Z,3.10
2023-02-21T20:42:27.252Z,4.07
2023-02-21T20:44:55.131Z,3.95
2023-02-21T20:47:22.586Z,3.67
2023-02-21T20:49:49.389Z,5.28
2023-02-21T20:52:16.746Z,5.47
2023-02-21T20:54:44.036Z,3.95
2023-02-21T20:57:11.195Z,7.80
2023-02-21T20:59:39.545Z,6.47
2023-02-21T21:02:08.085Z,9.77
2023-02-21T21:04:37.997Z,7.10
2023-02-21T21:07:08.711Z,6.07
2023-02-21T21:09:37.658Z,6.03
2023-02-21T21:12:07.885Z,8.85
2023-02-21T21:14:39.632Z,4.93
2023-02-21T21:17:07.273Z,6.10
2023-02-21T21:19:34.744Z,6.97
2023-02-21T21:22:09.026Z,6.38
2023-02-21T21:24:37.191Z,6.25
2023-02-21T21:27:08.745Z,6.85
2023-02-21T21:29:38.063Z,6.00
2023-02-21T21:32:05.943Z,5.72
2023-02-21T21:34:33.380Z,8.68
2023-02-21T21:37:02.280Z,7.50
2023-02-21T21:39:31.496Z,5.88
2023-02-21T21:42:05.271Z,6.35
2023-02-21T21:44:32.989Z,7.25
2023-02-21T21:47:01.073Z,5.47
2023-02-21T21:49:33.618Z,8.43
2023-02-21T21:52:04.446Z,7.45
2023-02-21T21:54:36.099Z,8.82
2023-02-21T21:57:05.361Z,6.90
2023-02-21T21:59:32.881Z,7.38
2023-02-21T22:02:00.176Z,5.60
2023-02-21T22:04:27.333Z,6.05
2023-02-21T22:06:56.571Z,6.97
2023-02-21T22:09:23.704Z,7.07
2023-02-21T22:11:51.275Z,6.60
2023-02-21T22:14:19.801Z,9.00
2023-02-21T22:16:49.222Z,8.68
2023-02-21T22:19:17.179Z,5.83
2023-02-21T22:21:44.144Z,4.93
2023-02-21T22:24:15.289Z,8.23
2023-02-21T22:26:44.855Z,7.35
2023-02-21T22:29:16.869Z,5.68
2023-02-21T22:31:46.218Z,5.88
2023-02-21T22:34:23.119Z,5.82
2023-02-21T22:36:52.400Z,5.35
2023-02-21T22:39:21.404Z,6.93
2023-02-21T22:41:49.119Z,5.50
2023-02-21T22:44:16.272Z,7.53
2023-02-21T22:46:48.659Z,4.60
2023-02-21T22:49:18.670Z,4.38
2023-02-21T22:51:45.562Z,4.30
2023-02-21T22:54:16.083Z,6.65
2023-02-21T22:56:51.081Z,8.40
2023-02-21T22:59:20.953Z,6.95
2023-02-21T23:01:47.854Z,6.43
2023-02-21T23:04:27.052Z,6.68
2023-02-21T23:07:01.963Z,8.93
2023-02-21T23:09:37.153Z,5.95
2023-02-21T23:12:05.886Z,7.95
2023-02-21T23:14:35.003Z,8.35
2023-02-21T23:17:02.357Z,10.35
2023-02-21T23:19:30.391Z,10.23
2023-02-21T23:22:00.092Z,7.45
2023-02-21T23:24:28.249Z,5.13
2023-02-21T23:26:55.168Z,5.50
2023-02-21T23:29:30.803Z,7.72
2023-02-21T23:32:09.750Z,8.43
2023-02-21T23:34:46.797Z,6.55
2023-02-21T23:37:15.339Z,5.13
2023-02-21T23:39:42.391Z,8.63
2023-02-21T23:42:11.025Z,6.25
2023-02-21T23:44:38.197Z,6.75
2023-02-21T23:47:06.146Z,5.35
2023-02-21T23:49:33.278Z,5.78
2023-02-21T23:52:01.666Z,4.32
2023-02-21T23:54:28.749Z,6.47
2023-02-21T23:57:00.462Z,5.03
2023-02-21T23:59:27.920Z,6.47
